Time;durP1;ratioP1;P1;durP2;ratioP2;P2;SDS_P1;SDS_P2;PMS_P1;PMS_P2;Temp;Humidity;BMP_temperature;BMP_pressure;BME280_temperature;BME280_humidity;BME280_pressure;Samples;Min_cycle;Max_cycle;Signal;HPM_P1;HPM_P2
2021/09/08 00:00:30;;;;;;;13.77;12.20;;;17.70;99.90;;;;;;5049885;28;20229;-84
2021/09/08 00:02:59;;;;;;;14.35;12.85;;;17.70;99.90;;;;;;5049956;28;20209;-81
2021/09/08 00:05:26;;;;;;;15.63;13.50;;;17.60;99.90;;;;;;5050322;28;20619;-81
2021/09/08 00:07:53;;;;;;;18.10;16.17;;;17.60;99.90;;;;;;5049674;28;20198;-82
2021/09/08 00:10:20;;;;;;;17.23;14.10;;;17.60;99.90;;;;;;5050542;28;20202;-83
2021/09/08 00:12:48;;;;;;;17.20;14.93;;;17.60;99.90;;;;;;5049401;28;20213;-83
2021/09/08 00:15:15;;;;;;;14.77;13.18;;;17.60;99.90;;;;;;5049344;28;20209;-83
2021/09/08 00:17:44;;;;;;;16.42;14.30;;;17.50;99.90;;;;;;5057682;28;20194;-84
2021/09/08 00:20:13;;;;;;;15.63;13.65;;;17.50;99.90;;;;;;5069206;28;20232;-80
2021/09/08 00:22:40;;;;;;;17.17;13.98;;;17.50;99.90;;;;;;5052101;28;20636;-81
2021/09/08 00:25:08;;;;;;;16.52;13.55;;;17.50;99.90;;;;;;5050358;28;20206;-84
2021/09/08 00:27:35;;;;;;;14.82;13.20;;;17.50;99.90;;;;;;5050371;28;20206;-85
2021/09/08 00:30:03;;;;;;;16.63;14.18;;;17.40;99.90;;;;;;5049389;28;20205;-84
2021/09/08 00:32:31;;;;;;;14.93;13.38;;;17.40;99.90;;;;;;5054478;28;20201;-84
2021/09/08 00:34:59;;;;;;;15.90;13.55;;;17.40;99.90;;;;;;5068928;28;20212;-83
2021/09/08 00:37:25;;;;;;;17.50;14.52;;;17.40;99.90;;;;;;5070073;28;20201;-84
2021/09/08 00:39:52;;;;;;;18.67;15.95;;;17.30;99.90;;;;;;5049403;28;20221;-80
2021/09/08 00:42:19;;;;;;;19.80;14.80;;;17.30;99.90;;;;;;5066907;22;20240;-83
2021/09/08 00:44:46;;;;;;;18.20;14.85;;;17.30;99.90;;;;;;5072896;28;20512;-82
2021/09/08 00:47:14;;;;;;;18.02;14.93;;;17.30;99.90;;;;;;5068429;28;20201;-82
2021/09/08 00:49:41;;;;;;;15.65;14.02;;;17.30;99.90;;;;;;5069110;28;20859;-85
2021/09/08 00:52:12;;;;;;;17.35;14.25;;;17.30;99.90;;;;;;5070430;28;20205;-84
2021/09/08 00:54:39;;;;;;;17.00;15.05;;;17.30;99.90;;;;;;5088417;28;20286;-83
2021/09/08 00:57:08;;;;;;;16.55;14.18;;;17.30;99.90;;;;;;5088686;28;20211;-82
2021/09/08 00:59:35;;;;;;;16.40;14.63;;;17.20;99.90;;;;;;5088384;28;20738;-83
2021/09/08 01:02:05;;;;;;;17.98;15.25;;;17.20;99.90;;;;;;5089048;28;20216;-84
2021/09/08 01:04:31;;;;;;;14.75;13.00;;;17.20;99.90;;;;;;5088004;28;20784;-81
2021/09/08 01:06:59;;;;;;;17.80;15.25;;;17.20;99.90;;;;;;5068737;28;20219;-82
2021/09/08 01:09:28;;;;;;;15.63;13.48;;;17.20;99.90;;;;;;5067928;28;20246;-84
2021/09/08 01:11:56;;;;;;;15.63;13.35;;;17.20;99.90;;;;;;5067781;28;20205;-84
2021/09/08 01:14:23;;;;;;;18.90;14.07;;;17.10;99.90;;;;;;5068904;28;20216;-83
2021/09/08 01:16:50;;;;;;;14.98;13.27;;;17.10;99.90;;;;;;5067690;28;20205;-82
2021/09/08 01:19:17;;;;;;;14.48;12.98;;;17.00;99.90;;;;;;5072655;28;20225;-83
2021/09/08 01:21:44;;;;;;;16.23;13.77;;;17.00;99.90;;;;;;5074456;28;20201;-82
2021/09/08 01:24:12;;;;;;;14.55;12.27;;;17.00;99.90;;;;;;5074521;28;20193;-84
2021/09/08 01:26:41;;;;;;;13.15;11.73;;;17.00;99.90;;;;;;5075635;28;20240;-83
2021/09/08 01:29:09;;;;;;;13.02;11.07;;;16.90;99.90;;;;;;5070476;28;20616;-82
2021/09/08 01:31:36;;;;;;;13.25;11.90;;;16.90;99.90;;;;;;5068617;28;20212;-83
2021/09/08 01:34:04;;;;;;;13.70;12.23;;;16.90;99.90;;;;;;5068040;28;20208;-83
2021/09/08 01:36:37;;;;;;;13.18;11.85;;;16.90;99.90;;;;;;5069075;28;20190;-81
2021/09/08 01:39:04;;;;;;;15.45;13.32;;;16.80;99.90;;;;;;5067640;28;20204;-83
2021/09/08 01:41:33;;;;;;;15.90;13.20;;;16.80;99.90;;;;;;5068673;28;20208;-82
2021/09/08 01:44:00;;;;;;;14.82;13.23;;;16.80;99.90;;;;;;5067532;28;20233;-84
2021/09/08 01:46:27;;;;;;;15.95;13.43;;;16.80;99.90;;;;;;5068275;28;20213;-84
2021/09/08 01:48:53;;;;;;;16.25;13.10;;;16.80;99.90;;;;;;5067558;28;20352;-83
2021/09/08 01:51:21;;;;;;;13.70;12.15;;;16.70;99.90;;;;;;5068235;28;20680;-85
2021/09/08 01:53:48;;;;;;;15.73;12.77;;;16.70;99.90;;;;;;5077037;28;20201;-84
2021/09/08 01:56:15;;;;;;;16.02;12.73;;;16.70;99.90;;;;;;5068442;28;20275;-84
2021/09/08 01:58:44;;;;;;;13.55;12.07;;;16.60;99.90;;;;;;5068168;28;20209;-82
2021/09/08 02:01:11;;;;;;;13.63;11.70;;;16.60;99.90;;;;;;5068847;28;20248;-84
2021/09/08 02:03:38;;;;;;;14.98;12.10;;;16.60;99.90;;;;;;5069619;28;20205;-82
2021/09/08 02:06:18;;;;;;;16.27;13.20;;;16.60;99.90;;;;;;5068706;28;20510;-84
2021/09/08 02:08:44;;;;;;;13.55;12.02;;;16.50;99.90;;;;;;5069706;28;20204;-83
2021/09/08 02:11:11;;;;;;;14.15;12.15;;;16.50;99.90;;;;;;5069409;28;20193;-83
2021/09/08 02:13:38;;;;;;;17.10;13.07;;;16.50;99.90;;;;;;5068576;28;20209;-83
2021/09/08 02:16:07;;;;;;;15.35;13.10;;;16.50;99.90;;;;;;5068260;28;20204;-82
2021/09/08 02:18:34;;;;;;;15.88;12.57;;;16.50;99.90;;;;;;5073593;28;20212;-82
2021/09/08 02:21:01;;;;;;;15.15;13.02;;;16.50;99.90;;;;;;5089568;28;20209;-85
2021/09/08 02:23:27;;;;;;;16.45;13.75;;;16.40;99.90;;;;;;5089407;28;20662;-85
2021/09/08 02:25:54;;;;;;;18.15;14.88;;;16.40;99.90;;;;;;5071669;28;20578;-84
2021/09/08 02:28:21;;;;;;;19.48;15.82;;;16.40;99.90;;;;;;5068839;28;20528;-82
2021/09/08 02:30:48;;;;;;;17.80;13.77;;;16.40;99.90;;;;;;5080376;28;20208;-88
2021/09/08 02:33:17;;;;;;;16.65;13.40;;;16.40;99.90;;;;;;5088320;28;20197;-83
2021/09/08 02:35:44;;;;;;;17.02;13.93;;;16.40;99.90;;;;;;5083685;28;20232;-84
2021/09/08 02:38:11;;;;;;;21.40;15.02;;;16.40;99.90;;;;;;5068200;28;20226;-83
2021/09/08 02:40:38;;;;;;;15.63;13.88;;;16.40;99.90;;;;;;5071819;28;20232;-82
2021/09/08 02:43:05;;;;;;;17.37;14.20;;;16.40;99.90;;;;;;5087220;28;20236;-83
2021/09/08 02:45:32;;;;;;;16.00;14.25;;;16.40;99.90;;;;;;5080805;28;20209;-83
2021/09/08 02:47:59;;;;;;;15.40;13.68;;;16.40;99.90;;;;;;5071370;28;20857;-85
2021/09/08 02:50:27;;;;;;;16.08;14.02;;;16.40;99.90;;;;;;5071585;28;20229;-84
2021/09/08 02:52:54;;;;;;;14.68;12.68;;;16.40;99.90;;;;;;5080846;28;20216;-82
2021/09/08 02:55:20;;;;;;;14.15;12.05;;;16.30;99.90;;;;;;5091865;28;20231;-82
2021/09/08 02:57:47;;;;;;;15.50;12.80;;;16.30;99.90;;;;;;5092215;28;20204;-82
2021/09/08 03:00:15;;;;;;;16.65;13.15;;;16.30;99.90;;;;;;5084044;28;20224;-82
2021/09/08 03:02:42;;;;;;;14.40;12.90;;;16.30;99.90;;;;;;5072078;28;20205;-81
2021/09/08 03:05:10;;;;;;;16.67;13.37;;;16.30;99.90;;;;;;5070973;28;20209;-84
2021/09/08 03:07:38;;;;;;;15.67;12.57;;;16.30;99.90;;;;;;5083743;28;20216;-83
2021/09/08 03:10:06;;;;;;;15.35;12.80;;;16.20;99.90;;;;;;5091863;28;20207;-84
2021/09/08 03:12:32;;;;;;;15.65;13.60;;;16.20;99.90;;;;;;5092356;28;20205;-85
2021/09/08 03:14:59;;;;;;;16.00;13.50;;;16.20;99.90;;;;;;5091571;28;20600;-83
2021/09/08 03:17:26;;;;;;;16.27;13.93;;;16.20;99.90;;;;;;5091149;28;20858;-83
2021/09/08 03:19:53;;;;;;;15.90;13.20;;;16.20;99.90;;;;;;5091391;28;20228;-84
2021/09/08 03:22:20;;;;;;;15.50;13.45;;;16.20;99.90;;;;;;5086696;28;20209;-85
2021/09/08 03:24:49;;;;;;;18.13;14.67;;;16.10;99.90;;;;;;5070100;28;20287;-82
2021/09/08 03:27:15;;;;;;;15.18;13.30;;;16.10;99.90;;;;;;5071389;28;20208;-85
2021/09/08 03:29:42;;;;;;;19.60;16.03;;;16.10;99.90;;;;;;5080054;28;20234;-82
2021/09/08 03:32:09;;;;;;;17.30;15.50;;;16.10;99.90;;;;;;5091798;28;20204;-83
2021/09/08 03:34:42;;;;;;;18.23;14.93;;;16.10;99.90;;;;;;5090979;28;20869;-84
2021/09/08 03:37:09;;;;;;;18.50;14.53;;;16.10;99.90;;;;;;5075495;28;20220;-82
2021/09/08 03:39:36;;;;;;;16.85;14.07;;;16.00;99.90;;;;;;5070619;28;20209;-84
2021/09/08 03:42:05;;;;;;;14.87;13.27;;;16.00;99.90;;;;;;5070578;28;20243;-85
2021/09/08 03:44:31;;;;;;;17.60;14.60;;;16.00;99.90;;;;;;5071109;28;20616;-82
2021/09/08 03:46:58;;;;;;;16.17;14.00;;;16.00;99.90;;;;;;5070867;28;20905;-83
2021/09/08 03:49:25;;;;;;;17.33;13.68;;;15.90;99.90;;;;;;5070522;28;20543;-84
2021/09/08 03:51:53;;;;;;;18.83;15.38;;;15.90;99.90;;;;;;5070372;28;20201;-83
2021/09/08 03:54:20;;;;;;;17.73;14.52;;;15.90;99.90;;;;;;5070983;28;20255;-82
2021/09/08 03:56:47;;;;;;;19.15;15.93;;;15.90;99.90;;;;;;5069886;28;20880;-81
2021/09/08 03:59:15;;;;;;;19.00;15.90;;;15.80;99.90;;;;;;5069149;28;20205;-84
2021/09/08 04:01:42;;;;;;;20.20;15.87;;;15.80;99.90;;;;;;5069856;28;20221;-82
2021/09/08 04:04:09;;;;;;;19.27;15.00;;;15.80;99.90;;;;;;5088140;28;20220;-83
2021/09/08 04:06:36;;;;;;;19.20;16.03;;;15.80;99.90;;;;;;5089448;28;20205;-84
2021/09/08 04:09:02;;;;;;;19.70;15.55;;;15.80;99.90;;;;;;5089896;28;20208;-82
2021/09/08 04:11:29;;;;;;;21.23;16.30;;;15.80;99.90;;;;;;5090225;28;20204;-84
2021/09/08 04:13:56;;;;;;;21.80;17.77;;;15.70;99.90;;;;;;5089521;28;20214;-80
2021/09/08 04:16:24;;;;;;;22.33;18.33;;;15.70;99.90;;;;;;5088990;28;20209;-83
2021/09/08 04:18:51;;;;;;;23.33;18.47;;;15.70;99.90;;;;;;5089713;28;20200;-84
2021/09/08 04:21:18;;;;;;;22.67;18.73;;;15.70;99.90;;;;;;5077066;28;20805;-82
2021/09/08 04:23:44;;;;;;;24.73;19.70;;;15.70;99.90;;;;;;5069024;28;20874;-84
2021/09/08 04:26:12;;;;;;;21.23;16.97;;;15.70;99.90;;;;;;5069955;28;20678;-82
2021/09/08 04:28:39;;;;;;;21.35;16.85;;;15.70;99.90;;;;;;5069879;28;20594;-81
2021/09/08 04:31:06;;;;;;;19.47;16.30;;;15.70;99.90;;;;;;5068978;28;20209;-82
2021/09/08 04:33:34;;;;;;;27.90;19.63;;;15.70;99.90;;;;;;5069476;28;20208;-81
2021/09/08 04:36:01;;;;;;;24.60;20.87;;;15.70;99.90;;;;;;5069429;28;20555;-80
2021/09/08 04:38:28;;;;;;;24.00;19.17;;;15.70;99.90;;;;;;5068953;28;20217;-81
2021/09/08 04:40:55;;;;;;;22.17;17.70;;;15.60;99.90;;;;;;5068261;28;20319;-80
2021/09/08 04:43:22;;;;;;;19.73;16.53;;;15.60;99.90;;;;;;5068443;28;20244;-85
2021/09/08 04:45:50;;;;;;;18.17;15.63;;;15.60;99.90;;;;;;5068421;28;20209;-84
2021/09/08 04:48:17;;;;;;;20.03;15.77;;;15.60;99.90;;;;;;5067654;28;20205;-83
2021/09/08 04:50:45;;;;;;;19.43;14.97;;;15.60;99.90;;;;;;5067652;28;20201;-82
2021/09/08 04:53:12;;;;;;;20.10;16.30;;;15.60;99.90;;;;;;5080778;28;20209;-81
2021/09/08 04:55:40;;;;;;;19.40;16.70;;;15.60;99.90;;;;;;5088438;28;20227;-81
2021/09/08 04:58:07;;;;;;;24.15;16.25;;;15.60;99.90;;;;;;5067992;28;20213;-81
2021/09/08 05:00:34;;;;;;;25.97;19.37;;;15.60;99.90;;;;;;5077240;28;20362;-80
2021/09/08 05:03:01;;;;;;;22.10;18.97;;;15.60;99.90;;;;;;5087983;28;20596;-81
2021/09/08 05:05:28;;;;;;;25.20;18.57;;;15.60;99.90;;;;;;5085249;28;20654;-81
2021/09/08 05:07:56;;;;;;;25.10;18.27;;;15.60;99.90;;;;;;5067159;28;20597;-82
2021/09/08 05:10:23;;;;;;;23.73;18.93;;;15.50;99.90;;;;;;5068042;28;20205;-81
2021/09/08 05:12:50;;;;;;;22.63;18.60;;;15.60;99.90;;;;;;5069699;28;20230;-82
2021/09/08 05:15:17;;;;;;;24.13;19.63;;;15.60;99.90;;;;;;5087648;28;20547;-84
2021/09/08 05:17:44;;;;;;;23.73;18.63;;;15.60;99.90;;;;;;5079312;28;20208;-82
2021/09/08 05:20:11;;;;;;;22.03;17.53;;;15.60;99.90;;;;;;5067318;28;20201;-81
2021/09/08 05:22:38;;;;;;;22.83;18.90;;;15.60;99.90;;;;;;5066919;28;20882;-80
2021/09/08 05:25:08;;;;;;;26.88;19.52;;;15.60;99.90;;;;;;5067213;28;20204;-82
2021/09/08 05:27:35;;;;;;;25.33;20.47;;;15.60;99.90;;;;;;5066979;28;20193;-84
2021/09/08 05:30:01;;;;;;;24.67;18.83;;;15.70;99.90;;;;;;5066928;28;20209;-81
2021/09/08 05:32:28;;;;;;;26.47;21.13;;;15.70;99.90;;;;;;5066933;28;20196;-81
2021/09/08 05:34:56;;;;;;;28.53;21.57;;;15.70;99.90;;;;;;5084107;28;20215;-84
2021/09/08 05:37:23;;;;;;;23.77;18.67;;;15.70;99.90;;;;;;5086248;28;20208;-83
2021/09/08 05:39:50;;;;;;;25.88;20.08;;;15.80;99.90;;;;;;5083966;28;20196;-82
2021/09/08 05:42:19;;;;;;;24.50;19.53;;;15.80;99.90;;;;;;5070831;28;20299;-83
2021/09/08 05:44:46;;;;;;;24.57;19.57;;;15.80;99.90;;;;;;5066292;28;20205;-82
2021/09/08 05:47:13;;;;;;;23.47;18.27;;;15.80;99.90;;;;;;5067363;28;20862;-80
2021/09/08 05:49:40;;;;;;;26.60;20.43;;;15.80;99.90;;;;;;5068453;28;20532;-80
2021/09/08 05:52:07;;;;;;;27.60;21.30;;;15.90;99.90;;;;;;5080916;28;20224;-80
2021/09/08 05:54:34;;;;;;;21.17;17.53;;;15.90;99.90;;;;;;5066758;28;20243;-82
2021/09/08 05:57:01;;;;;;;25.03;19.07;;;15.90;99.90;;;;;;5086433;28;20985;-81
2021/09/08 05:59:29;;;;;;;21.80;18.70;;;15.90;99.90;;;;;;5087132;28;20808;-82
2021/09/08 06:01:56;;;;;;;22.67;18.70;;;15.90;99.90;;;;;;5086630;28;20243;-81
2021/09/08 06:04:23;;;;;;;21.33;16.90;;;15.90;99.90;;;;;;5085414;28;20212;-83
2021/09/08 06:06:49;;;;;;;20.05;16.90;;;16.00;99.90;;;;;;5087980;28;20204;-83
2021/09/08 06:09:16;;;;;;;24.08;19.42;;;16.00;99.90;;;;;;5088330;28;20212;-83
2021/09/08 06:11:43;;;;;;;25.15;19.95;;;16.00;99.90;;;;;;5089265;28;20197;-81
2021/09/08 06:14:12;;;;;;;22.05;18.20;;;16.00;99.90;;;;;;5088694;28;20210;-82
2021/09/08 06:16:40;;;;;;;21.35;17.52;;;16.10;99.90;;;;;;5088804;28;20692;-84
2021/09/08 06:19:07;;;;;;;28.03;20.23;;;16.10;99.90;;;;;;5089711;28;20572;-83
2021/09/08 06:21:34;;;;;;;23.87;18.70;;;16.10;99.90;;;;;;5092998;28;20216;-83
2021/09/08 06:24:01;;;;;;;25.70;19.15;;;16.10;99.90;;;;;;5084256;28;20231;-83
2021/09/08 06:26:27;;;;;;;23.63;19.47;;;16.10;99.90;;;;;;5073210;28;20477;-83
2021/09/08 06:28:54;;;;;;;24.07;19.57;;;16.20;99.90;;;;;;5073788;28;20201;-83
2021/09/08 06:31:21;;;;;;;23.95;17.10;;;16.20;99.90;;;;;;5075329;28;20228;-83
2021/09/08 06:33:50;;;;;;;25.60;20.30;;;16.30;99.90;;;;;;5074019;28;20205;-83
2021/09/08 06:36:18;;;;;;;26.57;19.73;;;16.30;99.90;;;;;;5060357;28;20581;-83
2021/09/08 06:38:45;;;;;;;27.85;20.75;;;16.30;99.90;;;;;;5079016;28;20193;-83
2021/09/08 06:41:12;;;;;;;25.50;20.10;;;16.40;99.90;;;;;;5096923;28;20224;-84
2021/09/08 06:43:39;;;;;;;23.48;19.92;;;16.40;99.90;;;;;;5080892;28;20322;-83
2021/09/08 06:46:05;;;;;;;28.40;20.65;;;16.50;99.90;;;;;;5080710;28;20213;-84
2021/09/08 06:48:32;;;;;;;26.08;19.75;;;16.50;99.90;;;;;;5083338;28;20197;-83
2021/09/08 06:51:17;;;;;;;25.92;20.45;;;16.60;99.90;;;;;;5054306;28;20419;-83
2021/09/08 06:53:44;;;;;;;24.23;19.45;;;16.70;99.90;;;;;;5092590;28;20196;-83
2021/09/08 06:56:11;;;;;;;23.38;19.25;;;16.70;99.90;;;;;;5091790;28;20225;-84
2021/09/08 06:58:38;;;;;;;26.92;21.50;;;16.80;99.90;;;;;;5089990;28;20241;-84
2021/09/08 07:01:04;;;;;;;24.38;18.67;;;16.80;99.90;;;;;;5091627;28;20243;-84
2021/09/08 07:03:31;;;;;;;24.73;19.17;;;16.90;99.90;;;;;;5084381;28;20212;-86
2021/09/08 07:05:58;;;;;;;20.70;17.65;;;16.90;99.90;;;;;;5071703;28;20205;-85
2021/09/08 07:08:26;;;;;;;26.55;20.45;;;17.00;99.90;;;;;;5077550;28;20204;-83
2021/09/08 07:10:53;;;;;;;26.98;20.80;;;17.10;99.90;;;;;;5092315;28;20955;-83
2021/09/08 07:13:20;;;;;;;28.13;22.08;;;17.10;99.90;;;;;;5082561;28;20201;-85
2021/09/08 07:15:47;;;;;;;30.83;22.10;;;17.20;99.90;;;;;;5071016;28;20205;-84
2021/09/08 07:18:13;;;;;;;22.23;18.27;;;17.30;99.90;;;;;;5089358;28;20205;-84
2021/09/08 07:20:41;;;;;;;27.58;21.23;;;17.40;99.90;;;;;;5091592;28;20281;-83
2021/09/08 07:23:09;;;;;;;24.27;19.63;;;17.50;99.90;;;;;;5091461;28;20221;-85
2021/09/08 07:25:37;;;;;;;25.50;19.30;;;17.50;99.90;;;;;;5092585;28;20596;-85
2021/09/08 07:28:05;;;;;;;26.00;19.27;;;17.70;99.90;;;;;;5090637;28;20216;-84
2021/09/08 07:30:32;;;;;;;24.27;18.77;;;17.70;99.90;;;;;;5090764;28;20207;-83
2021/09/08 07:32:59;;;;;;;22.88;18.95;;;17.80;99.90;;;;;;5085812;28;20207;-85
2021/09/08 07:35:26;;;;;;;24.08;19.88;;;17.90;99.90;;;;;;5070175;28;20209;-84
2021/09/08 07:37:53;;;;;;;26.77;20.20;;;18.00;99.90;;;;;;5068747;28;20227;-84
2021/09/08 07:40:19;;;;;;;22.13;19.45;;;18.00;99.90;;;;;;5069667;28;20197;-85
2021/09/08 07:42:48;;;;;;;26.33;20.33;;;18.10;99.90;;;;;;5071142;28;20233;-83
2021/09/08 07:45:15;;;;;;;26.48;19.88;;;18.20;99.90;;;;;;5070695;28;20189;-82
2021/09/08 07:47:41;;;;;;;22.75;19.25;;;18.30;99.90;;;;;;5071210;28;20218;-83
2021/09/08 07:50:10;;;;;;;23.13;19.02;;;18.40;99.90;;;;;;5070772;28;20206;-84
2021/09/08 07:52:37;;;;;;;20.73;17.67;;;18.40;99.90;;;;;;5069413;28;20208;-83
2021/09/08 07:55:05;;;;;;;21.40;17.15;;;18.50;99.90;;;;;;5075666;28;20726;-85
2021/09/08 07:57:31;;;;;;;20.30;17.58;;;18.60;99.90;;;;;;5089376;28;20204;-83
2021/09/08 08:00:00;;;;;;;21.77;17.60;;;18.70;99.90;;;;;;5071583;28;20212;-83
2021/09/08 08:02:26;;;;;;;20.40;17.60;;;18.80;99.90;;;;;;5085873;28;20722;-82
2021/09/08 08:04:53;;;;;;;20.88;18.10;;;18.90;99.90;;;;;;5090160;28;20196;-85
2021/09/08 08:07:20;;;;;;;20.65;18.05;;;19.10;99.90;;;;;;5091529;28;20606;-83
2021/09/08 08:09:47;;;;;;;22.45;17.80;;;19.20;99.90;;;;;;5091100;28;20290;-83
2021/09/08 08:12:13;;;;;;;22.77;17.42;;;19.40;99.90;;;;;;5075201;28;20840;-83
2021/09/08 08:14:40;;;;;;;21.30;17.38;;;19.60;99.90;;;;;;5071600;28;20197;-83
2021/09/08 08:17:08;;;;;;;17.65;14.88;;;20.00;99.90;;;;;;5071195;28;20208;-82
2021/09/08 08:19:35;;;;;;;19.27;16.70;;;20.30;99.90;;;;;;5072247;28;20216;-86
2021/09/08 08:22:02;;;;;;;21.83;17.92;;;20.60;99.90;;;;;;5091590;28;20248;-87
2021/09/08 08:24:29;;;;;;;19.67;16.20;;;20.90;99.90;;;;;;5092564;28;20193;-87
2021/09/08 08:26:57;;;;;;;19.52;15.68;;;21.30;99.90;;;;;;5091565;28;20507;-85
2021/09/08 08:29:23;;;;;;;19.67;14.80;;;21.60;99.90;;;;;;5092199;28;20257;-85
2021/09/08 08:31:50;;;;;;;18.98;15.27;;;21.90;99.90;;;;;;5092210;28;20204;-86
2021/09/08 08:34:18;;;;;;;18.15;15.13;;;22.20;99.90;;;;;;5080946;28;20201;-86
2021/09/08 08:36:45;;;;;;;17.08;14.65;;;22.50;99.90;;;;;;5074956;28;20204;-85
2021/09/08 08:39:12;;;;;;;15.55;13.85;;;22.80;99.90;;;;;;5091225;28;20224;-83
2021/09/08 08:41:39;;;;;;;18.67;14.85;;;23.00;99.90;;;;;;5089961;28;20227;-83
2021/09/08 08:44:07;;;;;;;20.25;15.48;;;23.30;99.90;;;;;;5069007;28;20652;-83
2021/09/08 08:46:33;;;;;;;17.30;15.02;;;23.50;99.90;;;;;;5069709;28;20208;-82
2021/09/08 08:49:00;;;;;;;15.52;13.93;;;23.80;99.90;;;;;;5069855;28;20212;-84
2021/09/08 08:51:29;;;;;;;16.17;13.45;;;24.00;99.90;;;;;;5083160;28;20208;-84
2021/09/08 08:53:55;;;;;;;18.52;14.45;;;24.20;99.90;;;;;;5090576;28;20200;-85
2021/09/08 08:56:23;;;;;;;16.23;13.60;;;24.40;99.90;;;;;;5090277;28;20216;-84
2021/09/08 08:58:50;;;;;;;18.20;15.02;;;24.60;99.90;;;;;;5069993;28;20221;-83
2021/09/08 09:01:19;;;;;;;15.65;12.52;;;24.70;99.90;;;;;;5068801;28;20197;-82
2021/09/08 09:04:00;;;;;;;15.15;11.90;;;24.80;99.90;;;;;;5069461;28;20212;-82
2021/09/08 09:06:29;;;;;;;15.40;13.63;;;25.00;99.90;;;;;;5083137;28;20212;-87
2021/09/08 09:09:01;;;;;;;14.55;12.65;;;25.10;99.90;;;;;;5083866;28;20201;-84
2021/09/08 09:11:28;;;;;;;15.95;13.48;;;25.30;99.90;;;;;;5070013;28;20197;-82
2021/09/08 09:13:55;;;;;;;14.98;13.35;;;25.50;99.90;;;;;;5068638;28;20209;-85
2021/09/08 09:16:26;;;;;;;12.95;10.30;;;25.50;99.90;;;;;;5068562;28;20216;-83
2021/09/08 09:18:53;;;;;;;17.13;13.70;;;25.60;99.90;;;;;;5068898;28;20610;-84
2021/09/08 09:21:20;;;;;;;15.55;12.38;;;25.60;99.90;;;;;;5069067;28;20202;-84
2021/09/08 09:23:51;;;;;;;19.05;14.27;;;25.70;99.90;;;;;;5070207;28;20225;-84
2021/09/08 09:26:21;;;;;;;15.10;11.60;;;25.70;99.90;;;;;;5088937;28;20379;-85
2021/09/08 09:28:48;;;;;;;14.63;12.10;;;25.90;99.90;;;;;;5083059;28;20309;-84
2021/09/08 09:31:17;;;;;;;11.68;10.10;;;25.90;99.90;;;;;;5067641;28;20216;-81
2021/09/08 09:33:44;;;;;;;14.57;10.95;;;26.00;99.90;;;;;;5067606;28;20588;-84
2021/09/08 09:36:16;;;;;;;11.68;10.43;;;26.10;99.90;;;;;;5083225;22;20235;-86
2021/09/08 09:38:43;;;;;;;11.25;10.02;;;26.30;99.90;;;;;;5107944;28;20204;-81
2021/09/08 09:41:12;;;;;;;12.32;10.25;;;26.40;99.90;;;;;;5107331;28;20200;-82
2021/09/08 09:43:41;;;;;;;15.57;11.80;;;26.40;99.90;;;;;;5102716;28;20236;-82
2021/09/08 09:46:09;;;;;;;13.05;11.35;;;26.40;99.90;;;;;;5088717;28;20209;-85
2021/09/08 09:48:36;;;;;;;15.98;13.10;;;26.40;99.90;;;;;;5087396;28;20483;-85
2021/09/08 09:51:04;;;;;;;15.95;12.63;;;26.40;99.90;;;;;;5088187;28;20201;-82
2021/09/08 09:53:31;;;;;;;15.10;10.57;;;26.60;99.90;;;;;;5103966;28;20208;-86
2021/09/08 09:55:58;;;;;;;57.70;20.20;;;26.60;99.90;;;;;;5109734;28;20222;-87
2021/09/08 09:58:26;;;;;;;29.00;14.70;;;26.60;99.90;;;;;;5097158;28;20524;-84
2021/09/08 10:00:53;;;;;;;16.23;12.20;;;26.70;99.90;;;;;;5090810;28;20213;-86
2021/09/08 10:03:21;;;;;;;14.02;11.32;;;26.80;99.90;;;;;;5088203;28;20216;-82
2021/09/08 10:05:49;;;;;;;16.27;11.63;;;26.90;99.90;;;;;;5088412;28;20211;-85
2021/09/08 10:08:20;;;;;;;11.20;10.10;;;27.10;99.90;;;;;;5088885;28;20200;-83
2021/09/08 10:10:50;;;;;;;13.68;12.07;;;27.20;99.90;;;;;;5089436;28;20212;-89
2021/09/08 10:13:20;;;;;;;13.43;11.45;;;27.40;99.90;;;;;;5088984;28;20551;-86
2021/09/08 10:15:50;;;;;;;12.45;10.90;;;27.30;99.90;;;;;;5091354;28;20200;-86
2021/09/08 10:18:22;;;;;;;13.02;10.25;;;27.30;99.90;;;;;;5090510;28;20877;-84
2021/09/08 10:20:53;;;;;;;11.85;9.38;;;27.40;99.90;;;;;;5089997;28;20847;-85
2021/09/08 10:23:19;;;;;;;11.40;10.20;;;27.50;99.90;;;;;;5089210;28;20255;-84
2021/09/08 10:25:49;;;;;;;10.90;9.68;;;27.50;99.90;;;;;;5104083;28;20200;-85
2021/09/08 10:28:18;;;;;;;12.45;11.07;;;27.60;99.90;;;;;;5110620;28;20184;-86
2021/09/08 10:30:48;;;;;;;12.98;10.55;;;27.60;99.90;;;;;;5109718;28;20204;-84
2021/09/08 10:33:17;;;;;;;12.82;9.10;;;27.60;99.90;;;;;;5095598;28;20287;-83
2021/09/08 10:35:44;;;;;;;11.70;10.50;;;27.80;99.90;;;;;;5088171;28;20204;-86
2021/09/08 10:38:13;;;;;;;10.77;9.43;;;28.00;99.90;;;;;;5090152;28;20211;-86
2021/09/08 10:40:42;;;;;;;12.75;10.30;;;28.20;99.90;;;;;;5088856;28;20345;-85
2021/09/08 10:43:09;;;;;;;12.00;9.95;;;28.20;99.90;;;;;;5089528;28;20235;-84
2021/09/08 10:45:36;;;;;;;13.23;10.57;;;28.30;99.90;;;;;;5091487;28;20211;-88
2021/09/08 10:48:05;;;;;;;12.10;9.90;;;28.40;99.90;;;;;;5090286;28;20235;-85
2021/09/08 10:50:43;;;;;;;13.15;10.65;;;28.50;99.90;;;;;;5090603;28;20213;-86
2021/09/08 10:53:29;;;;;;;12.90;11.30;;;28.50;99.90;;;;;;5089837;28;20212;-88
2021/09/08 10:55:59;;;;;;;14.20;10.50;;;28.40;99.90;;;;;;5088358;28;20263;-86
2021/09/08 10:58:55;;;;;;;12.73;11.02;;;28.50;99.90;;;;;;5089662;28;20212;-86
2021/09/08 11:01:22;;;;;;;12.40;10.63;;;28.50;99.90;;;;;;5089513;28;20287;-83
2021/09/08 11:03:51;;;;;;;12.52;11.23;;;28.70;99.90;;;;;;5087471;28;20227;-84
2021/09/08 11:06:18;;;;;;;11.80;10.10;;;28.50;99.90;;;;;;5089499;28;20256;-84
2021/09/08 11:08:45;;;;;;;14.50;11.32;;;28.40;99.90;;;;;;5092231;28;20200;-86
2021/09/08 11:11:16;;;;;;;12.45;10.05;;;28.60;99.90;;;;;;5092722;28;20205;-84
2021/09/08 11:13:44;;;;;;;11.60;10.30;;;28.60;99.90;;;;;;5095943;28;20191;-86
2021/09/08 11:16:22;;;;;;;13.70;11.65;;;28.70;99.90;;;;;;5111202;28;20256;-84
2021/09/08 11:18:51;;;;;;;11.60;9.57;;;28.60;99.90;;;;;;5098785;28;20235;-82
2021/09/08 11:21:18;;;;;;;10.98;9.90;;;28.70;99.90;;;;;;5090160;28;20196;-82
2021/09/08 11:23:47;;;;;;;11.35;10.13;;;28.80;99.90;;;;;;5105394;28;20228;-86
2021/09/08 11:26:14;;;;;;;10.43;9.38;;;29.00;99.90;;;;;;5113160;28;20208;-85
2021/09/08 11:28:42;;;;;;;12.15;10.82;;;28.90;99.90;;;;;;5112556;28;20604;-85
2021/09/08 11:31:14;;;;;;;11.25;9.65;;;29.00;99.90;;;;;;5098752;28;20247;-82
2021/09/08 11:33:41;;;;;;;11.48;9.60;;;29.20;99.90;;;;;;5092471;28;20203;-85
2021/09/08 11:36:14;;;;;;;14.85;12.63;;;29.10;99.90;;;;;;5092985;28;20908;-81
2021/09/08 11:38:47;;;;;;;11.82;9.60;;;29.00;99.90;;;;;;5092954;28;20284;-87
2021/09/08 11:41:16;;;;;;;11.85;10.65;;;29.00;99.90;;;;;;5093087;28;20342;-86
2021/09/08 11:43:47;;;;;;;11.57;10.35;;;29.10;99.90;;;;;;5093212;28;20229;-89
2021/09/08 11:46:16;;;;;;;12.15;10.95;;;29.10;99.90;;;;;;5094212;28;20209;-88
2021/09/08 11:48:43;;;;;;;12.05;10.18;;;29.30;99.90;;;;;;5094229;28;20203;-88
2021/09/08 11:51:13;;;;;;;13.07;10.68;;;29.20;99.90;;;;;;5113953;28;20208;-86
2021/09/08 11:53:41;;;;;;;10.85;9.73;;;29.20;99.90;;;;;;5118026;28;20202;-84
2021/09/08 11:56:09;;;;;;;12.77;11.07;;;29.30;99.90;;;;;;5105878;28;20225;-86
2021/09/08 11:58:36;;;;;;;14.70;12.20;;;29.30;99.90;;;;;;5091549;28;20596;-87
2021/09/08 12:01:07;;;;;;;12.27;10.15;;;29.20;99.90;;;;;;5092515;28;20212;-88
2021/09/08 12:03:38;;;;;;;13.35;9.68;;;29.10;99.90;;;;;;5092259;28;20235;-88
2021/09/08 12:06:14;;;;;;;9.93;8.82;;;29.20;99.90;;;;;;5093399;28;20205;-86
2021/09/08 12:08:49;;;;;;;12.38;11.13;;;29.40;99.90;;;;;;5091016;28;20216;-85
2021/09/08 12:11:46;;;;;;;10.75;9.50;;;29.40;99.90;;;;;;5090973;28;20587;-84
2021/09/08 12:14:17;;;;;;;15.70;10.38;;;29.20;99.90;;;;;;5032046;28;20206;-82
2021/09/08 12:16:45;;;;;;;12.63;11.30;;;29.30;99.90;;;;;;5080691;28;20196;-83
2021/09/08 12:19:12;;;;;;;12.32;10.13;;;29.30;99.90;;;;;;5088278;28;20207;-82
2021/09/08 12:21:40;;;;;;;13.18;10.38;;;29.40;99.90;;;;;;5107480;28;20208;-82
2021/09/08 12:24:25;;;;;;;15.07;10.25;;;29.40;99.90;;;;;;5110180;28;20230;-80
2021/09/08 12:26:52;;;;;;;12.27;11.07;;;29.30;99.90;;;;;;5108655;28;20204;-80
2021/09/08 12:29:19;;;;;;;12.80;9.13;;;29.00;99.90;;;;;;5109755;28;20196;-81
2021/09/08 12:31:48;;;;;;;10.40;9.32;;;29.00;99.90;;;;;;5109262;28;20212;-86